createdAt,value
2018-08-06T00:00:58.007Z,1015.48
2018-08-06T00:01:58.632Z,1015.49
2018-08-06T00:02:58.015Z,1015.47
2018-08-06T00:03:58.036Z,1015.45
2018-08-06T00:04:58.037Z,1015.47
2018-08-06T00:05:58.038Z,1015.49
2018-08-06T00:06:58.046Z,1015.49
2018-08-06T00:07:58.044Z,1015.45
2018-08-06T00:08:58.060Z,1015.44
2018-08-06T00:09:58.064Z,1015.45
2018-08-06T00:10:58.063Z,1015.43
2018-08-06T00:11:58.055Z,1015.47
2018-08-06T00:12:58.068Z,1015.46
2018-08-06T00:13:58.077Z,1015.43
2018-08-06T00:14:58.123Z,1015.44
2018-08-06T00:15:58.068Z,1015.39
2018-08-06T00:16:58.079Z,1015.40
2018-08-06T00:17:58.080Z,1015.40
2018-08-06T00:18:58.082Z,1015.35
2018-08-06T00:19:58.084Z,1015.34
2018-08-06T00:20:58.092Z,1015.36
2018-08-06T00:21:58.098Z,1015.35
2018-08-06T00:22:58.095Z,1015.36
2018-08-06T00:23:58.093Z,1015.32
2018-08-06T00:24:58.638Z,1015.36
2018-08-06T00:25:58.107Z,1015.32
2018-08-06T00:26:58.127Z,1015.37
2018-08-06T00:27:58.123Z,1015.33
2018-08-06T00:28:58.113Z,1015.32
2018-08-06T00:29:58.138Z,1015.30
2018-08-06T00:30:58.141Z,1015.30
2018-08-06T00:31:58.115Z,1015.33
2018-08-06T00:32:58.131Z,1015.28
2018-08-06T00:33:58.133Z,1015.29
2018-08-06T00:34:58.650Z,1015.26
2018-08-06T00:35:58.140Z,1015.25
2018-08-06T00:36:58.153Z,1015.24
2018-08-06T00:37:58.142Z,1015.25
2018-08-06T00:38:58.151Z,1015.22
2018-08-06T00:39:58.145Z,1015.24
2018-08-06T00:40:58.155Z,1015.25
2018-08-06T00:41:58.160Z,1015.21
2018-08-06T00:42:58.650Z,1015.20
2018-08-06T00:43:58.171Z,1015.18
2018-08-06T00:44:58.158Z,1015.18
2018-08-06T00:45:58.166Z,1015.14
2018-08-06T00:46:58.166Z,1015.13
2018-08-06T00:47:58.171Z,1015.11
2018-08-06T00:48:58.171Z,1015.11
2018-08-06T00:49:58.183Z,1015.08
2018-08-06T00:50:58.226Z,1015.07
2018-08-06T00:51:58.192Z,1015.07
2018-08-06T00:52:58.222Z,1015.07
2018-08-06T00:53:58.204Z,1015.04
2018-08-06T00:54:58.193Z,1015.05
2018-08-06T00:55:58.247Z,1015.05
2018-08-06T00:56:58.208Z,1015.07
2018-08-06T00:57:58.201Z,1015.05
2018-08-06T00:58:58.207Z,1015.05
2018-08-06T00:59:58.211Z,1015.02
2018-08-06T01:00:58.211Z,1014.99
2018-08-06T01:01:58.220Z,1014.99
2018-08-06T01:02:58.231Z,1014.97
2018-08-06T01:03:58.239Z,1014.96
2018-08-06T01:04:58.225Z,1014.96
2018-08-06T01:05:58.219Z,1014.94
2018-08-06T01:06:58.244Z,1014.92
2018-08-06T01:07:58.237Z,1014.90
2018-08-06T01:08:58.284Z,1014.91
2018-08-06T01:09:58.251Z,1014.91
2018-08-06T01:10:58.249Z,1014.89
2018-08-06T01:11:58.261Z,1014.90
2018-08-06T01:12:58.237Z,1014.90
2018-08-06T01:13:58.274Z,1014.89
2018-08-06T01:14:58.251Z,1014.85
2018-08-06T01:15:58.262Z,1014.88
2018-08-06T01:16:58.269Z,1014.89
2018-08-06T01:17:58.267Z,1014.87
2018-08-06T01:18:58.390Z,1014.88
2018-08-06T01:19:58.275Z,1014.86
2018-08-06T01:20:58.280Z,1014.84
2018-08-06T01:21:58.282Z,1014.83
2018-08-06T01:22:58.291Z,1014.83
2018-08-06T01:23:58.287Z,1014.83
2018-08-06T01:24:58.296Z,1014.84
2018-08-06T01:25:58.301Z,1014.79
2018-08-06T01:26:58.308Z,1014.75
2018-08-06T01:27:58.309Z,1014.82
2018-08-06T01:28:58.305Z,1014.79
2018-08-06T01:29:58.310Z,1014.78
2018-08-06T01:30:58.315Z,1014.80
2018-08-06T01:31:58.321Z,1014.77
2018-08-06T01:32:58.315Z,1014.78
2018-08-06T01:33:58.324Z,1014.72
2018-08-06T01:34:58.333Z,1014.71
2018-08-06T01:35:58.321Z,1014.74
2018-08-06T01:36:58.456Z,1014.71
2018-08-06T01:37:58.338Z,1014.75
2018-08-06T01:38:58.337Z,1014.73
2018-08-06T01:39:58.341Z,1014.72
2018-08-06T01:40:58.342Z,1014.69
2018-08-06T01:41:58.341Z,1014.72
2018-08-06T01:42:58.351Z,1014.73
2018-08-06T01:43:58.358Z,1014.74
2018-08-06T01:44:58.354Z,1014.70
2018-08-06T01:45:58.357Z,1014.72
2018-08-06T01:46:58.361Z,1014.72
2018-08-06T01:47:58.367Z,1014.73
2018-08-06T01:48:58.371Z,1014.69
2018-08-06T01:49:58.358Z,1014.68
2018-08-06T01:50:58.370Z,1014.67
2018-08-06T01:51:58.376Z,1014.60
2018-08-06T01:52:58.374Z,1014.62
2018-08-06T01:53:58.379Z,1014.60
2018-08-06T01:54:58.385Z,1014.56
2018-08-06T01:55:58.390Z,1014.57
2018-08-06T01:56:58.383Z,1014.53
2018-08-06T01:57:58.414Z,1014.58
2018-08-06T01:58:58.400Z,1014.54
2018-08-06T01:59:59.178Z,1014.50
2018-08-06T02:00:58.403Z,1014.51
2018-08-06T02:01:58.404Z,1014.49
2018-08-06T02:02:58.419Z,1014.47
2018-08-06T02:03:58.408Z,1014.46
2018-08-06T02:04:58.417Z,1014.49
2018-08-06T02:05:58.422Z,1014.49
2018-08-06T02:06:58.427Z,1014.49
2018-08-06T02:07:58.433Z,1014.50
2018-08-06T02:08:58.434Z,1014.44
2018-08-06T02:09:58.487Z,1014.46
2018-08-06T02:10:58.433Z,1014.46
2018-08-06T02:11:58.440Z,1014.46
2018-08-06T02:12:58.423Z,1014.45
2018-08-06T02:13:58.437Z,1014.48
2018-08-06T02:14:58.461Z,1014.45
2018-08-06T02:15:58.446Z,1014.42
2018-08-06T02:16:58.471Z,1014.42
2018-08-06T02:17:58.465Z,1014.45
2018-08-06T02:18:58.459Z,1014.42
2018-08-06T02:19:58.457Z,1014.45
2018-08-06T02:20:58.460Z,1014.40
2018-08-06T02:21:58.469Z,1014.42
2018-08-06T02:22:58.518Z,1014.39
2018-08-06T02:23:58.472Z,1014.41
2018-08-06T02:24:58.481Z,1014.39
2018-08-06T02:25:58.478Z,1014.36
2018-08-06T02:26:58.484Z,1014.33
2018-08-06T02:27:58.599Z,1014.36
2018-08-06T02:28:58.489Z,1014.34
2018-08-06T02:29:58.493Z,1014.35
2018-08-06T02:30:58.492Z,1014.36
2018-08-06T02:31:58.499Z,1014.33
2018-08-06T02:32:58.504Z,1014.30
2018-08-06T02:33:58.498Z,1014.27
2018-08-06T02:34:58.501Z,1014.27
2018-08-06T02:35:58.506Z,1014.23
2018-08-06T02:36:58.515Z,1014.23
2018-08-06T02:37:58.521Z,1014.18
2018-08-06T02:38:58.534Z,1014.21
2018-08-06T02:39:58.516Z,1014.17
2018-08-06T02:40:58.563Z,1014.14
2018-08-06T02:41:58.518Z,1014.15
2018-08-06T02:42:58.530Z,1014.09
2018-08-06T02:43:58.537Z,1014.10
2018-08-06T02:44:58.532Z,1014.11
2018-08-06T02:45:58.580Z,1014.06
2018-08-06T02:46:58.544Z,1014.11
2018-08-06T02:47:58.593Z,1014.09
2018-08-06T02:48:58.547Z,1014.10
2018-08-06T02:49:58.559Z,1014.11
2018-08-06T02:50:58.667Z,1014.06
2018-08-06T02:51:58.562Z,1014.08
2018-08-06T02:52:58.558Z,1014.09
2018-08-06T02:53:58.579Z,1014.10
2018-08-06T02:54:58.564Z,1014.09
2018-08-06T02:55:58.564Z,1014.05
2018-08-06T02:56:58.573Z,1014.07
2018-08-06T02:57:58.569Z,1014.10
2018-08-06T02:58:58.567Z,1014.10
2018-08-06T02:59:58.578Z,1014.09
2018-08-06T03:00:58.581Z,1014.09
2018-08-06T03:01:58.584Z,1014.04
2018-08-06T03:02:58.591Z,1014.04
2018-08-06T03:03:58.673Z,1014.01
2018-08-06T03:04:58.591Z,1014.03
2018-08-06T03:05:58.590Z,1013.97
2018-08-06T03:06:58.599Z,1013.99
2018-08-06T03:07:58.604Z,1013.99
2018-08-06T03:08:58.623Z,1014.01
2018-08-06T03:09:58.632Z,1013.99
2018-08-06T03:10:58.608Z,1013.98
2018-08-06T03:11:58.614Z,1014.00
2018-08-06T03:12:58.618Z,1014.00
2018-08-06T03:13:58.617Z,1014.01
2018-08-06T03:14:58.622Z,1014.03
2018-08-06T03:15:58.620Z,1013.99
2018-08-06T03:16:58.696Z,1014.01
2018-08-06T03:17:58.631Z,1013.95
2018-08-06T03:18:58.635Z,1013.97
2018-08-06T03:19:58.686Z,1013.98
2018-08-06T03:20:58.651Z,1014.00
2018-08-06T03:21:58.700Z,1013.98
2018-08-06T03:22:58.644Z,1014.01
2018-08-06T03:23:58.650Z,1014.05
2018-08-06T03:24:58.651Z,1014.07
2018-08-06T03:25:58.660Z,1014.07
2018-08-06T03:26:58.657Z,1014.04
2018-08-06T03:27:58.661Z,1014.09
2018-08-06T03:28:58.662Z,1014.11
2018-08-06T03:29:58.668Z,1014.11
2018-08-06T03:30:58.671Z,1014.14
2018-08-06T03:31:58.678Z,1014.08
2018-08-06T03:32:58.680Z,1014.16
2018-08-06T03:33:58.679Z,1014.11
2018-08-06T03:34:58.751Z,1014.08
2018-08-06T03:35:58.683Z,1014.10
2018-08-06T03:36:58.684Z,1014.09
2018-08-06T03:37:58.688Z,1014.05
2018-08-06T03:38:58.705Z,1014.07
2018-08-06T03:39:58.690Z,1014.08
2018-08-06T03:40:58.688Z,1014.02
2018-08-06T03:41:58.705Z,1014.02
2018-08-06T03:42:58.704Z,1013.97
2018-08-06T03:43:58.706Z,1013.96
2018-08-06T03:44:59.219Z,1013.94
2018-08-06T03:45:58.768Z,1013.93
2018-08-06T03:46:58.764Z,1013.90
2018-08-06T03:47:58.721Z,1013.90
2018-08-06T03:48:58.728Z,1013.88
2018-08-06T03:49:58.770Z,1013.95
2018-08-06T03:50:58.749Z,1013.89
2018-08-06T03:51:58.791Z,1013.91
2018-08-06T03:52:58.777Z,1013.94
2018-08-06T03:53:58.770Z,1013.92
2018-08-06T03:54:58.747Z,1013.92
2018-08-06T03:55:58.731Z,1013.89
2018-08-06T03:56:58.745Z,1013.89
2018-08-06T03:57:58.788Z,1013.86
2018-08-06T03:58:58.750Z,1013.83
2018-08-06T03:59:58.749Z,1013.82
2018-08-06T04:00:58.766Z,1013.83
2018-08-06T04:01:58.758Z,1013.79
2018-08-06T04:02:58.762Z,1013.78
2018-08-06T04:03:58.763Z,1013.76
2018-08-06T04:04:58.771Z,1013.76
2018-08-06T04:05:58.773Z,1013.74
2018-08-06T04:06:58.772Z,1013.78
2018-08-06T04:07:58.764Z,1013.75
2018-08-06T04:08:58.779Z,1013.72
2018-08-06T04:09:58.789Z,1013.74
2018-08-06T04:10:58.774Z,1013.71
2018-08-06T04:11:58.788Z,1013.71
2018-08-06T04:12:58.788Z,1013.71
2018-08-06T04:13:58.799Z,1013.69
2018-08-06T04:14:58.794Z,1013.70
2018-08-06T04:15:59.732Z,1013.68
2018-08-06T04:16:58.799Z,1013.72
2018-08-06T04:17:58.808Z,1013.73
2018-08-06T04:18:58.815Z,1013.76
2018-08-06T04:19:58.825Z,1013.75
2018-08-06T04:20:58.815Z,1013.78
2018-08-06T04:21:58.810Z,1013.78
2018-08-06T04:22:58.819Z,1013.74
2018-08-06T04:23:58.821Z,1013.78
2018-08-06T04:24:58.827Z,1013.76
2018-08-06T04:25:58.833Z,1013.74
2018-08-06T04:26:58.829Z,1013.75
2018-08-06T04:27:58.836Z,1013.76
2018-08-06T04:28:58.886Z,1013.75
2018-08-06T04:29:58.841Z,1013.77
2018-08-06T04:30:58.843Z,1013.77
2018-08-06T04:31:58.848Z,1013.81
2018-08-06T04:32:58.901Z,1013.77
2018-08-06T04:33:58.852Z,1013.79
2018-08-06T04:34:58.864Z,1013.80
2018-08-06T04:35:58.848Z,1013.77
2018-08-06T04:36:58.858Z,1013.73
2018-08-06T04:37:58.863Z,1013.79
2018-08-06T04:38:58.931Z,1013.74
2018-08-06T04:39:58.874Z,1013.74
2018-08-06T04:40:58.875Z,1013.72
2018-08-06T04:41:58.877Z,1013.76
2018-08-06T04:42:58.882Z,1013.70
2018-08-06T04:43:58.880Z,1013.70
2018-08-06T04:44:58.884Z,1013.68
2018-08-06T04:45:58.975Z,1013.66
2018-08-06T04:46:58.923Z,1013.69
2018-08-06T04:47:58.926Z,1013.71
2018-08-06T04:48:58.937Z,1013.72
2018-08-06T04:49:58.932Z,1013.68
2018-08-06T04:50:58.961Z,1013.65
2018-08-06T04:51:58.942Z,1013.69
2018-08-06T04:52:58.901Z,1013.70
2018-08-06T04:53:58.907Z,1013.71
2018-08-06T04:54:58.915Z,1013.76
2018-08-06T04:55:58.919Z,1013.73
2018-08-06T04:56:58.916Z,1013.75
2018-08-06T04:57:58.937Z,1013.72
2018-08-06T04:58:58.921Z,1013.75
2018-08-06T04:59:58.941Z,1013.71
2018-08-06T05:00:58.932Z,1013.72
2018-08-06T05:01:58.928Z,1013.74
2018-08-06T05:02:58.935Z,1013.73
2018-08-06T05:03:58.953Z,1013.71
2018-08-06T05:04:58.945Z,1013.73
2018-08-06T05:05:58.948Z,1013.69
2018-08-06T05:06:59.118Z,1013.73
2018-08-06T05:07:58.951Z,1013.71
2018-08-06T05:08:58.957Z,1013.70
2018-08-06T05:09:58.958Z,1013.67
2018-08-06T05:10:58.973Z,1013.67
2018-08-06T05:11:58.975Z,1013.63
2018-08-06T05:12:58.962Z,1013.62
2018-08-06T05:13:58.991Z,1013.62
2018-08-06T05:14:58.959Z,1013.63
2018-08-06T05:15:58.958Z,1013.63
2018-08-06T05:16:58.980Z,1013.66
2018-08-06T05:17:58.984Z,1013.65
2018-08-06T05:18:58.979Z,1013.68
2018-08-06T05:19:59.131Z,1013.70
2018-08-06T05:20:59.005Z,1013.70
2018-08-06T05:21:58.995Z,1013.67
2018-08-06T05:22:59.000Z,1013.67
2018-08-06T05:23:58.998Z,1013.70
2018-08-06T05:24:59.011Z,1013.68
2018-08-06T05:25:59.002Z,1013.66
2018-08-06T05:26:59.009Z,1013.65
2018-08-06T05:27:59.009Z,1013.63
2018-08-06T05:28:59.018Z,1013.61
2018-08-06T05:29:59.016Z,1013.60
2018-08-06T05:30:59.021Z,1013.60
2018-08-06T05:31:59.038Z,1013.60
2018-08-06T05:32:59.758Z,1013.58
2018-08-06T05:33:59.028Z,1013.57
2018-08-06T05:34:59.030Z,1013.59
2018-08-06T05:35:59.042Z,1013.58
2018-08-06T05:36:59.038Z,1013.61
2018-08-06T05:37:59.046Z,1013.59
2018-08-06T05:38:59.039Z,1013.62
2018-08-06T05:39:59.065Z,1013.62
2018-08-06T05:40:59.062Z,1013.65
2018-08-06T05:41:59.045Z,1013.67
2018-08-06T05:42:59.059Z,1013.65
2018-08-06T05:43:59.056Z,1013.68
2018-08-06T05:44:59.130Z,1013.67
2018-08-06T05:45:59.080Z,1013.69
2018-08-06T05:46:59.070Z,1013.69
2018-08-06T05:47:59.127Z,1013.67
2018-08-06T05:48:59.142Z,1013.70
2018-08-06T05:49:59.080Z,1013.73
2018-08-06T05:50:59.094Z,1013.68
2018-08-06T05:51:59.089Z,1013.77
2018-08-06T05:52:59.142Z,1013.75
2018-08-06T05:53:59.097Z,1013.76
2018-08-06T05:54:59.094Z,1013.75
2018-08-06T05:55:59.103Z,1013.80
2018-08-06T05:56:59.108Z,1013.82
2018-08-06T05:57:59.113Z,1013.77
2018-08-06T05:58:59.119Z,1013.77
2018-08-06T05:59:59.141Z,1013.77
2018-08-06T06:00:59.774Z,1013.84
2018-08-06T06:01:59.135Z,1013.84
2018-08-06T06:02:59.146Z,1013.86
2018-08-06T06:03:59.160Z,1013.94
2018-08-06T06:04:59.162Z,1013.92
2018-08-06T06:05:59.159Z,1013.94
2018-08-06T06:06:59.154Z,1013.95
2018-08-06T06:07:59.169Z,1013.99
2018-08-06T06:08:59.170Z,1014.00
2018-08-06T06:09:59.345Z,1013.98
2018-08-06T06:10:59.203Z,1013.97
2018-08-06T06:11:59.190Z,1014.02
2018-08-06T06:12:59.192Z,1013.97
2018-08-06T06:13:59.299Z,1013.99
2018-08-06T06:14:59.210Z,1013.98
2018-08-06T06:15:59.216Z,1013.93
2018-08-06T06:16:59.234Z,1013.97
2018-08-06T06:17:59.244Z,1013.97
2018-08-06T06:18:59.242Z,1014.01
2018-08-06T06:19:59.258Z,1013.99
2018-08-06T06:20:59.297Z,1013.98
2018-08-06T06:21:59.262Z,1013.94
2018-08-06T06:22:59.272Z,1013.97
2018-08-06T06:23:59.275Z,1013.96
2018-08-06T06:24:59.289Z,1013.92
2018-08-06T06:25:59.316Z,1013.94
2018-08-06T06:26:59.365Z,1013.96
2018-08-06T06:27:59.319Z,1013.93
2018-08-06T06:28:59.334Z,1013.96
2018-08-06T06:29:59.343Z,1013.93
2018-08-06T06:30:59.348Z,1014.00
2018-08-06T06:31:59.385Z,1013.93
2018-08-06T06:32:59.363Z,1013.94
2018-08-06T06:33:59.363Z,1013.92
2018-08-06T06:34:59.384Z,1013.86
2018-08-06T06:35:59.397Z,1013.87
2018-08-06T06:36:59.483Z,1013.90
2018-08-06T06:37:59.407Z,1013.93
2018-08-06T06:38:59.435Z,1013.98
2018-08-06T06:39:59.424Z,1013.96
2018-08-06T06:40:59.447Z,1013.97
2018-08-06T06:42:00.301Z,1013.95
2018-08-06T06:42:59.457Z,1013.96
2018-08-06T06:43:59.466Z,1014.01
2018-08-06T06:44:59.478Z,1013.99
2018-08-06T06:45:59.480Z,1014.01
2018-08-06T06:46:59.496Z,1014.01
2018-08-06T06:47:59.517Z,1013.99
2018-08-06T06:48:59.577Z,1013.98
2018-08-06T06:49:59.525Z,1013.98
2018-08-06T06:50:59.536Z,1013.98
2018-08-06T06:51:59.640Z,1013.99
2018-08-06T06:52:59.546Z,1013.97
2018-08-06T06:53:59.560Z,1014.00
2018-08-06T06:54:59.576Z,1014.02
2018-08-06T06:55:59.583Z,1014.08
2018-08-06T06:56:59.593Z,1014.07
2018-08-06T06:57:59.601Z,1014.10
2018-08-06T06:58:59.615Z,1014.04
2018-08-06T06:59:59.660Z,1014.08
2018-08-06T07:00:59.633Z,1014.08
2018-08-06T07:02:00.321Z,1014.12
2018-08-06T07:02:59.655Z,1014.15
2018-08-06T07:03:59.682Z,1014.14
2018-08-06T07:04:59.681Z,1014.13
2018-08-06T07:05:59.718Z,1014.17
2018-08-06T07:06:59.712Z,1014.18
2018-08-06T07:07:59.725Z,1014.26
2018-08-06T07:08:59.737Z,1014.29
2018-08-06T07:09:59.738Z,1014.26
2018-08-06T07:10:59.734Z,1014.34
2018-08-06T07:12:00.325Z,1014.33
2018-08-06T07:12:59.773Z,1014.35
2018-08-06T07:13:59.838Z,1014.34
2018-08-06T07:14:59.803Z,1014.33
2018-08-06T07:15:59.805Z,1014.33
2018-08-06T07:16:59.822Z,1014.34
2018-08-06T07:18:00.348Z,1014.31
2018-08-06T07:18:59.900Z,1014.27
2018-08-06T07:19:59.908Z,1014.24
2018-08-06T07:20:59.868Z,1014.23
2018-08-06T07:21:59.878Z,1014.25
2018-08-06T07:22:59.901Z,1014.23
2018-08-06T07:23:59.910Z,1014.26
2018-08-06T07:24:59.976Z,1014.31
2018-08-06T07:25:59.979Z,1014.31
2018-08-06T07:26:59.950Z,1014.38
2018-08-06T07:27:59.972Z,1014.32
2018-08-06T07:28:59.968Z,1014.35
2018-08-06T07:30:00.006Z,1014.32
2018-08-06T07:30:59.998Z,1014.36
2018-08-06T07:32:00.042Z,1014.33
2018-08-06T07:33:00.019Z,1014.39
2018-08-06T07:34:00.060Z,1014.44
2018-08-06T07:35:00.085Z,1014.43
2018-08-06T07:36:00.065Z,1014.53
2018-08-06T07:37:00.086Z,1014.51
2018-08-06T07:38:00.099Z,1014.57
2018-08-06T07:39:00.123Z,1014.63
2018-08-06T07:40:00.150Z,1014.67
2018-08-06T07:41:00.138Z,1014.76
2018-08-06T07:42:00.140Z,1014.81
2018-08-06T07:43:00.175Z,1014.88
2018-08-06T07:44:00.231Z,1014.85
2018-08-06T07:45:00.187Z,1014.88
2018-08-06T07:46:00.208Z,1014.94
2018-08-06T07:47:00.233Z,1014.97
2018-08-06T07:48:00.300Z,1015.01
2018-08-06T07:49:00.256Z,1015.03
2018-08-06T07:50:00.868Z,1015.10
2018-08-06T07:51:00.306Z,1015.17
2018-08-06T07:52:00.320Z,1015.22
2018-08-06T07:53:00.310Z,1015.32
2018-08-06T07:54:00.362Z,1015.36
2018-08-06T07:55:00.344Z,1015.43
2018-08-06T07:56:00.343Z,1015.52
2018-08-06T07:57:00.407Z,1015.60
2018-08-06T07:58:00.399Z,1015.63
2018-08-06T07:59:00.397Z,1015.71
2018-08-06T08:00:01.373Z,1015.73
2018-08-06T08:01:00.422Z,1015.78
2018-08-06T08:02:00.470Z,1015.84
2018-08-06T08:03:00.604Z,1015.88
2018-08-06T08:04:00.473Z,1015.92
2018-08-06T08:05:00.490Z,1015.97
2018-08-06T08:06:00.508Z,1016.02
2018-08-06T08:07:00.529Z,1016.10
2018-08-06T08:08:00.621Z,1016.17
2018-08-06T08:09:00.548Z,1016.21
2018-08-06T08:10:00.576Z,1016.30
2018-08-06T08:11:00.591Z,1016.32
2018-08-06T08:12:00.678Z,1016.45
2018-08-06T08:13:00.614Z,1016.57
2018-08-06T08:14:00.654Z,1016.59
2018-08-06T08:15:00.688Z,1016.73
2018-08-06T08:16:00.662Z,1016.82
2018-08-06T08:17:00.682Z,1017.01
2018-08-06T08:18:01.394Z,1017.28
2018-08-06T08:19:00.712Z,1017.64
2018-08-06T08:20:00.806Z,1018.06
2018-08-06T08:21:00.794Z,1019.46
2018-08-06T08:22:00.758Z,1023.07
2018-08-06T08:23:00.784Z,1029.66
2018-08-06T08:24:00.800Z,1038.34
2018-08-06T08:25:00.869Z,1040.78
2018-08-06T08:26:00.824Z,1042.72
2018-08-06T08:27:01.390Z,1046.17
2018-08-06T08:28:01.406Z,1043.00
2018-08-06T08:29:00.892Z,1041.36
2018-08-06T08:30:00.886Z,1046.11
2018-08-06T08:31:01.894Z,1045.66
2018-08-06T08:32:00.934Z,1045.82
2018-08-06T08:33:00.946Z,1045.15
2018-08-06T08:34:01.014Z,1042.36
2018-08-06T08:35:00.988Z,1043.34
2018-08-06T08:36:00.991Z,1044.98
2018-08-06T08:37:01.038Z,1045.05
2018-08-06T08:38:01.908Z,1045.37
2018-08-06T08:39:01.908Z,1043.47
2018-08-06T08:40:01.092Z,1045.32
2018-08-06T08:41:01.116Z,1045.99
2018-08-06T08:42:01.104Z,1045.69
2018-08-06T08:43:01.143Z,1045.49
2018-08-06T08:44:01.158Z,1045.36
2018-08-06T08:45:01.167Z,1044.79
2018-08-06T08:46:01.191Z,1044.14
2018-08-06T08:47:01.204Z,1044.96
2018-08-06T08:48:01.215Z,1045.64
2018-08-06T08:49:01.298Z,1045.25
2018-08-06T08:50:01.302Z,1044.21
2018-08-06T08:51:01.270Z,1043.89
2018-08-06T08:52:01.348Z,1041.26
2018-08-06T08:53:01.481Z,1039.43
2018-08-06T08:54:01.330Z,1040.86
2018-08-06T08:55:01.344Z,1042.95
2018-08-06T08:56:01.398Z,1043.00
2018-08-06T08:57:01.397Z,1043.03
2018-08-06T08:58:01.396Z,1043.83
2018-08-06T08:59:01.433Z,1043.71
2018-08-06T09:00:01.435Z,1041.58
2018-08-06T09:01:01.505Z,1039.69
2018-08-06T09:02:02.464Z,1037.24
2018-08-06T09:03:02.423Z,1039.40
2018-08-06T09:04:01.529Z,1039.47
2018-08-06T09:05:02.418Z,1038.71
2018-08-06T09:06:01.574Z,1037.17
2018-08-06T09:07:01.565Z,1033.15
2018-08-06T09:08:01.592Z,1032.78
2018-08-06T09:09:01.594Z,1033.07
2018-08-06T09:10:01.625Z,1031.96
2018-08-06T09:11:01.644Z,1030.40
2018-08-06T09:12:01.660Z,1028.47
2018-08-06T09:13:01.759Z,1027.11
2018-08-06T09:14:01.769Z,1025.73
2018-08-06T09:15:01.738Z,1023.91
2018-08-06T09:16:02.421Z,1022.00
2018-08-06T09:17:01.756Z,1020.01
2018-08-06T09:18:01.782Z,1018.63
2018-08-06T09:19:01.804Z,1017.80
2018-08-06T09:20:01.836Z,1017.22
2018-08-06T09:21:01.860Z,1016.73
2018-08-06T09:22:01.872Z,1016.22
2018-08-06T09:23:02.426Z,1015.68
2018-08-06T09:24:01.892Z,1015.36
2018-08-06T09:25:01.912Z,1015.17
2018-08-06T09:26:01.933Z,1015.04
2018-08-06T09:27:01.951Z,1014.96
2018-08-06T09:28:02.931Z,1014.89
2018-08-06T09:29:02.028Z,1014.76
2018-08-06T09:30:02.038Z,1014.62
2018-08-06T09:31:02.932Z,1014.54
2018-08-06T09:32:02.060Z,1014.41
2018-08-06T09:33:02.095Z,1014.39
2018-08-06T09:34:02.172Z,1014.40
2018-08-06T09:35:02.126Z,1014.33
2018-08-06T09:36:02.135Z,1014.25
2018-08-06T09:37:02.151Z,1014.17
2018-08-06T09:38:02.930Z,1014.10
2018-08-06T09:39:02.203Z,1014.11
2018-08-06T09:40:02.214Z,1014.13
2018-08-06T09:41:02.229Z,1014.10
2018-08-06T09:42:02.255Z,1014.05
2018-08-06T09:43:02.276Z,1013.92
2018-08-06T09:44:02.286Z,1013.89
2018-08-06T09:45:02.323Z,1013.88
2018-08-06T09:46:02.340Z,1013.95
2018-08-06T09:47:02.360Z,1013.92
2018-08-06T09:48:02.569Z,1013.90
2018-08-06T09:49:02.412Z,1014.01
2018-08-06T09:50:02.446Z,1014.06
2018-08-06T09:51:02.945Z,1014.08
2018-08-06T09:52:02.462Z,1014.05
2018-08-06T09:53:02.495Z,1014.08
2018-08-06T09:54:02.508Z,1014.11
2018-08-06T09:55:02.526Z,1014.02
2018-08-06T09:56:02.548Z,1013.93
2018-08-06T09:57:02.574Z,1013.99
2018-08-06T09:58:02.630Z,1013.88
2018-08-06T09:59:02.625Z,1013.69
2018-08-06T10:00:02.653Z,1013.53
2018-08-06T10:01:02.714Z,1013.53
2018-08-06T10:02:02.690Z,1013.45
2018-08-06T10:03:02.704Z,1013.33
2018-08-06T10:04:02.729Z,1013.29
2018-08-06T10:05:02.754Z,1013.26
2018-08-06T10:06:02.864Z,1013.23
2018-08-06T10:07:02.794Z,1013.23
2018-08-06T10:08:02.873Z,1013.16
2018-08-06T10:09:02.855Z,1013.15
2018-08-06T10:10:02.864Z,1013.13
2018-08-06T10:11:02.884Z,1013.09
2018-08-06T10:12:02.962Z,1013.02
2018-08-06T10:13:04.539Z,1013.00
2018-08-06T10:14:02.955Z,1012.99
2018-08-06T10:15:02.980Z,1012.94
2018-08-06T10:16:02.996Z,1012.96
2018-08-06T10:17:03.025Z,1012.85
2018-08-06T10:18:03.048Z,1012.85
2018-08-06T10:19:03.187Z,1012.80
2018-08-06T10:20:03.150Z,1012.72
2018-08-06T10:21:03.105Z,1012.63
2018-08-06T10:22:03.145Z,1012.62
2018-08-06T10:23:03.170Z,1012.56
2018-08-06T10:24:03.199Z,1012.58
2018-08-06T10:25:03.197Z,1012.54
2018-08-06T10:26:03.223Z,1012.52
2018-08-06T10:27:03.243Z,1012.53
2018-08-06T10:28:03.282Z,1012.54
2018-08-06T10:29:03.307Z,1012.54
2018-08-06T10:30:03.428Z,1012.46
2018-08-06T10:31:03.350Z,1012.41
2018-08-06T10:32:03.367Z,1012.36
2018-08-06T10:33:03.375Z,1012.32
2018-08-06T10:35:35.589Z,1012.18
2018-08-06T10:36:35.560Z,1012.29
2018-08-06T10:37:35.592Z,1012.27
2018-08-06T10:38:35.627Z,1012.29
2018-08-06T10:39:35.639Z,1012.24
2018-08-06T10:40:35.664Z,1012.26
2018-08-06T10:41:35.673Z,1012.15
2018-08-06T10:42:36.534Z,1012.11
2018-08-06T10:43:35.779Z,1012.07
2018-08-06T10:44:35.761Z,1012.02
2018-08-06T10:45:35.770Z,1012.00
2018-08-06T10:46:35.802Z,1011.99
2018-08-06T10:47:35.825Z,1011.95
2018-08-06T10:48:37.670Z,1011.95
2018-08-06T10:49:35.873Z,1011.92
2018-08-06T10:50:35.874Z,1011.90
2018-08-06T10:51:35.910Z,1011.89
2018-08-06T10:52:35.970Z,1011.86
2018-08-06T10:53:35.961Z,1011.82
2018-08-06T10:54:35.999Z,1011.78
2018-08-06T10:55:36.158Z,1011.76
2018-08-06T10:56:36.020Z,1011.75
2018-08-06T10:57:36.094Z,1011.61
2018-08-06T10:58:36.076Z,1011.50
2018-08-06T10:59:36.151Z,1011.45
2018-08-06T11:00:36.099Z,1011.38
2018-08-06T11:01:36.128Z,1011.38
2018-08-06T11:02:36.151Z,1011.40
2018-08-06T11:03:36.163Z,1011.40
2018-08-06T11:04:36.180Z,1011.37
2018-08-06T11:05:36.272Z,1011.32
2018-08-06T11:06:36.313Z,1011.32
2018-08-06T11:07:36.249Z,1011.33
2018-08-06T11:08:36.269Z,1011.32
2018-08-06T11:09:36.291Z,1011.25
2018-08-06T11:10:36.293Z,1011.26
2018-08-06T11:11:36.321Z,1011.23
2018-08-06T11:12:36.325Z,1011.21
2018-08-06T11:13:36.351Z,1011.20
2018-08-06T11:14:36.371Z,1011.16
2018-08-06T11:15:36.383Z,1011.11
2018-08-06T11:16:36.395Z,1011.19
2018-08-06T11:17:36.403Z,1011.13
2018-08-06T11:18:36.427Z,1011.09
2018-08-06T11:19:36.438Z,1011.09
2018-08-06T11:20:36.559Z,1011.07
2018-08-06T11:21:36.469Z,1011.06
2018-08-06T11:22:36.620Z,1011.05
2018-08-06T11:23:36.512Z,1011.05
2018-08-06T11:24:36.559Z,1010.99
2018-08-06T11:25:36.560Z,1010.98
2018-08-06T11:26:36.540Z,1010.93
2018-08-06T11:27:36.562Z,1010.95
2018-08-06T11:28:36.608Z,1010.93
2018-08-06T11:29:36.578Z,1010.89
2018-08-06T11:30:36.597Z,1010.89
2018-08-06T11:31:36.613Z,1010.88
2018-08-06T11:32:37.553Z,1010.85
2018-08-06T11:33:36.630Z,1010.83
2018-08-06T11:34:36.653Z,1010.79
2018-08-06T11:35:36.677Z,1010.76
2018-08-06T11:36:36.713Z,1010.83
2018-08-06T11:37:36.683Z,1010.81
2018-08-06T11:38:36.712Z,1010.80
2018-08-06T11:39:37.553Z,1010.76
2018-08-06T11:40:36.721Z,1010.76
2018-08-06T11:41:36.764Z,1010.75
2018-08-06T11:42:36.751Z,1010.73
2018-08-06T11:43:36.757Z,1010.71
2018-08-06T11:44:36.763Z,1010.63
2018-08-06T11:45:36.786Z,1010.64
2018-08-06T11:46:36.798Z,1010.66
2018-08-06T11:47:36.831Z,1010.65
2018-08-06T11:48:36.819Z,1010.64
2018-08-06T11:49:36.824Z,1010.62
2018-08-06T11:50:36.831Z,1010.57
2018-08-06T11:51:36.848Z,1010.62
2018-08-06T11:52:36.868Z,1010.57
2018-08-06T11:53:36.872Z,1010.63
2018-08-06T11:54:36.881Z,1010.65
2018-08-06T11:55:36.907Z,1010.59
2018-08-06T11:56:36.934Z,1010.58
2018-08-06T11:57:37.037Z,1010.55
2018-08-06T11:58:36.929Z,1010.51
2018-08-06T11:59:36.948Z,1010.56
2018-08-06T12:00:38.640Z,1010.47
2018-08-06T12:01:36.971Z,1010.45
2018-08-06T12:02:36.969Z,1010.44
2018-08-06T12:03:36.986Z,1010.50
2018-08-06T12:04:36.995Z,1010.44
2018-08-06T12:05:37.002Z,1010.45
2018-08-06T12:06:37.404Z,1010.40
2018-08-06T12:07:37.059Z,1010.43